createdAt,value
2022-08-05T00:01:20.521Z,99.9
2022-08-05T00:03:21.117Z,99.9
2022-08-05T00:06:03.030Z,99.9
2022-08-05T00:08:00.465Z,99.9
2022-08-05T00:09:30.603Z,99.9
2022-08-05T00:11:35.021Z,99.9
2022-08-05T00:13:38.703Z,99.9
2022-08-05T00:15:55.301Z,99.9
2022-08-05T00:17:39.068Z,99.9
2022-08-05T00:19:44.153Z,99.9
2022-08-05T00:21:43.306Z,99.9
2022-08-05T00:23:53.421Z,99.9
2022-08-05T00:25:50.685Z,99.9
2022-08-05T00:27:52.819Z,99.9
2022-08-05T00:29:56.363Z,99.9
2022-08-05T00:32:11.101Z,99.9
2022-08-05T00:34:55.423Z,99.9
2022-08-05T00:36:16.152Z,99.9
2022-08-05T00:38:06.533Z,99.9
2022-08-05T00:40:09.404Z,99.9
2022-08-05T00:42:10.759Z,99.9
2022-08-05T00:43:15.369Z,99.9
2022-08-05T00:45:15.509Z,99.9
2022-08-05T00:47:17.587Z,99.9
2022-08-05T00:49:19.726Z,99.9
2022-08-05T00:51:50.528Z,99.9
2022-08-05T00:54:01.264Z,99.9
2022-08-05T00:55:34.221Z,99.9
2022-08-05T01:01:48.177Z,99.9
2022-08-05T01:08:30.449Z,99.9
2022-08-05T01:11:50.766Z,99.9
2022-08-05T01:13:58.511Z,99.9
2022-08-05T01:15:54.993Z,99.9
2022-08-05T01:17:57.109Z,99.9
2022-08-05T01:20:03.422Z,99.9
2022-08-05T01:22:04.572Z,99.9
2022-08-05T01:24:13.062Z,99.9
2022-08-05T01:26:08.730Z,99.9
2022-08-05T01:28:10.847Z,99.9
2022-08-05T01:30:19.000Z,99.9
2022-08-05T01:32:18.617Z,99.9
2022-08-05T01:34:20.336Z,99.9
2022-08-05T01:36:28.072Z,99.9
2022-08-05T01:38:27.533Z,99.9
2022-08-05T01:39:36.893Z,99.9
2022-08-05T01:41:29.307Z,99.9
2022-08-05T01:43:31.427Z,99.9
2022-08-05T01:45:34.935Z,99.9
2022-08-05T01:47:43.134Z,99.9
2022-08-05T01:50:00.317Z,99.9
2022-08-05T01:51:43.011Z,99.9
2022-08-05T01:55:47.235Z,99.9
2022-08-05T01:58:10.980Z,99.9
2022-08-05T01:59:51.441Z,99.9
2022-08-05T02:01:57.676Z,99.9
2022-08-05T02:03:58.826Z,99.9
2022-08-05T02:06:03.572Z,99.9
2022-08-05T02:08:03.065Z,99.9
2022-08-05T02:10:05.201Z,99.9
2022-08-05T02:12:10.198Z,99.9
2022-08-05T02:14:12.660Z,99.9
2022-08-05T02:16:16.557Z,99.9
2022-08-05T02:18:28.194Z,99.9
2022-08-05T02:22:26.433Z,99.9
2022-08-05T02:26:26.480Z,99.9
2022-08-05T02:28:31.252Z,99.9
2022-08-05T02:30:34.289Z,99.9
2022-08-05T02:32:35.814Z,99.9
2022-08-05T02:34:37.916Z,99.9
2022-08-05T02:37:06.715Z,99.9
2022-08-05T02:39:08.959Z,99.9
2022-08-05T02:41:17.233Z,99.9
2022-08-05T02:43:16.075Z,99.9
2022-08-05T02:53:26.630Z,99.9
2022-08-05T02:55:54.671Z,99.9
2022-08-05T02:59:50.105Z,99.9
2022-08-05T03:04:02.748Z,99.9
2022-08-05T03:06:55.220Z,99.9
2022-08-05T03:09:51.752Z,99.9
2022-08-05T03:11:55.827Z,99.9
2022-08-05T03:14:03.311Z,99.9
2022-08-05T03:15:56.191Z,99.9
2022-08-05T03:17:59.521Z,99.9
2022-08-05T03:20:00.413Z,99.9
2022-08-05T03:22:04.743Z,99.9
2022-08-05T03:24:04.634Z,99.9
2022-08-05T03:26:31.996Z,99.9
2022-08-05T03:31:25.839Z,99.9
2022-08-05T03:33:18.883Z,99.9
2022-08-05T03:35:20.998Z,99.9
2022-08-05T03:37:23.357Z,99.9
2022-08-05T03:39:28.442Z,99.9
2022-08-05T03:41:32.908Z,99.9
2022-08-05T03:44:08.401Z,99.9
2022-08-05T03:45:57.116Z,99.9
2022-08-05T03:47:41.347Z,99.9
2022-08-05T03:49:51.687Z,99.9
2022-08-05T03:52:39.167Z,99.9
2022-08-05T03:55:49.852Z,99.9
2022-08-05T03:56:09.337Z,99.9
2022-08-05T03:57:50.684Z,99.9
2022-08-05T04:04:10.341Z,99.9
2022-08-05T04:05:59.374Z,99.9
2022-08-05T04:10:07.863Z,99.9
2022-08-05T04:12:23.550Z,99.9
2022-08-05T04:14:10.672Z,99.9
2022-08-05T04:16:12.754Z,99.9
2022-08-05T04:18:17.233Z,99.9
2022-08-05T04:24:24.396Z,99.9
2022-08-05T04:26:26.487Z,99.9
2022-08-05T04:29:31.220Z,99.9
2022-08-05T04:31:37.532Z,99.9
2022-08-05T04:34:18.207Z,99.9
2022-08-05T04:36:15.723Z,99.9
2022-08-05T04:38:02.663Z,99.9
2022-08-05T04:39:44.971Z,99.9
2022-08-05T04:41:48.011Z,99.9
2022-08-05T04:43:51.995Z,99.9
2022-08-05T04:45:55.680Z,99.9
2022-08-05T04:47:53.378Z,99.9
2022-08-05T04:50:06.528Z,99.9
2022-08-05T04:52:00.818Z,99.9
2022-08-05T04:54:02.867Z,99.9
2022-08-05T04:56:33.903Z,99.9
2022-08-05T04:58:07.099Z,99.9
2022-08-05T05:00:09.258Z,99.9
2022-08-05T05:02:36.083Z,99.9
2022-08-05T05:04:16.589Z,99.9
2022-08-05T05:06:39.694Z,99.9
2022-08-05T05:08:26.607Z,99.9
2022-08-05T05:12:25.054Z,99.9
2022-08-05T05:14:31.619Z,99.9
2022-08-05T05:16:30.417Z,99.9
2022-08-05T05:18:34.570Z,99.9
2022-08-05T05:20:36.668Z,99.9
2022-08-05T05:22:40.755Z,99.9
2022-08-05T05:24:03.907Z,99.9
2022-08-05T05:25:43.533Z,99.9
2022-08-05T05:27:48.486Z,99.9
2022-08-05T05:30:04.303Z,99.9
2022-08-05T05:31:53.038Z,99.9
2022-08-05T05:33:59.385Z,99.9
2022-08-05T05:35:57.298Z,99.9
2022-08-05T05:40:01.514Z,99.9
2022-08-05T05:42:03.635Z,99.9
2022-08-05T05:44:05.745Z,99.9
2022-08-05T05:46:15.819Z,99.9
2022-08-05T05:48:16.161Z,99.9
2022-08-05T05:52:28.425Z,99.9
2022-08-05T05:56:26.127Z,99.9
2022-08-05T05:58:30.282Z,99.9
2022-08-05T06:02:36.719Z,99.9
2022-08-05T06:04:33.306Z,99.9
2022-08-05T06:06:35.331Z,99.9
2022-08-05T06:08:37.442Z,99.9
2022-08-05T06:10:49.081Z,99.9
2022-08-05T06:12:42.335Z,99.9
2022-08-05T06:14:46.935Z,99.9
2022-08-05T06:16:49.046Z,99.9
2022-08-05T06:18:53.670Z,99.9
2022-08-05T06:21:19.831Z,99.9
2022-08-05T06:23:21.966Z,99.9
2022-08-05T06:29:49.317Z,99.9
2022-08-05T06:31:33.771Z,99.9
2022-08-05T06:34:06.437Z,99.9
2022-08-05T06:36:04.151Z,99.9
2022-08-05T06:37:56.163Z,99.9
2022-08-05T06:39:42.054Z,99.9
2022-08-05T06:41:47.306Z,99.9
2022-08-05T06:43:58.071Z,99.9
2022-08-05T06:48:44.333Z,99.9
2022-08-05T06:51:57.841Z,99.9
2022-08-05T06:56:06.752Z,99.9
2022-08-05T07:02:13.095Z,99.9
2022-08-05T07:04:15.199Z,99.9
2022-08-05T07:10:32.196Z,99.9
2022-08-05T07:17:59.113Z,99.9
2022-08-05T07:20:30.954Z,99.9
2022-08-05T07:22:00.115Z,99.9
2022-08-05T07:23:49.937Z,99.9
2022-08-05T07:25:56.123Z,99.9
2022-08-05T07:27:57.514Z,99.9
2022-08-05T07:30:24.187Z,99.9
2022-08-05T07:31:54.499Z,99.9
2022-08-05T07:33:53.710Z,99.9
2022-08-05T07:36:05.937Z,99.9
2022-08-05T07:38:01.079Z,99.9
2022-08-05T07:40:26.304Z,99.9
2022-08-05T07:42:14.039Z,99.9
2022-08-05T07:44:12.166Z,99.9
2022-08-05T07:46:18.871Z,99.9
2022-08-05T07:48:11.662Z,99.9
2022-08-05T07:52:19.024Z,99.9
2022-08-05T07:57:01.345Z,99.9
2022-08-05T07:58:58.700Z,99.9
2022-08-05T08:00:27.095Z,99.9
2022-08-05T08:06:36.620Z,99.9
2022-08-05T08:11:47.878Z,99.9
2022-08-05T08:13:49.277Z,99.9
2022-08-05T08:16:49.986Z,99.9
2022-08-05T08:17:52.901Z,99.9
2022-08-05T08:21:57.106Z,99.9
2022-08-05T08:24:03.225Z,99.9
2022-08-05T08:26:02.766Z,99.9
2022-08-05T08:28:03.476Z,99.9
2022-08-05T08:30:29.657Z,99.9
2022-08-05T08:32:07.623Z,99.9
2022-08-05T08:38:17.054Z,99.9
2022-08-05T08:40:19.221Z,99.9
2022-08-05T08:45:20.619Z,99.9
2022-08-05T08:51:04.162Z,99.9
2022-08-05T08:52:34.963Z,99.9
2022-08-05T08:54:37.090Z,99.9
2022-08-05T08:56:47.428Z,99.9
2022-08-05T09:00:44.408Z,99.9
2022-08-05T09:06:52.846Z,99.9
2022-08-05T09:07:57.437Z,99.9
2022-08-05T09:09:57.566Z,99.9
2022-08-05T09:12:04.629Z,99.9
2022-08-05T09:14:54.619Z,99.9
2022-08-05T09:16:07.025Z,99.9
2022-08-05T09:18:09.131Z,99.9
2022-08-05T09:20:11.234Z,99.9
2022-08-05T09:22:17.623Z,99.9
2022-08-05T09:24:15.613Z,99.9
2022-08-05T09:26:22.270Z,99.9
2022-08-05T09:30:24.859Z,99.8
2022-08-05T09:32:41.686Z,99.8
2022-08-05T09:34:29.077Z,99.8
2022-08-05T09:36:33.612Z,99.8
2022-08-05T09:38:33.254Z,99.6
2022-08-05T09:40:35.342Z,99.5
2022-08-05T09:42:37.444Z,99.5
2022-08-05T09:44:42.714Z,98.8
2022-08-05T09:46:53.658Z,98.4
2022-08-05T09:50:49.013Z,96.7
2022-08-05T09:54:53.167Z,95
2022-08-05T09:56:55.249Z,94.4
2022-08-05T09:59:00.514Z,93.9
2022-08-05T10:01:13.246Z,93.7
2022-08-05T10:03:04.800Z,93.5
2022-08-05T10:05:33.530Z,92.1
2022-08-05T10:08:35.113Z,91.8
2022-08-05T10:11:42.771Z,90.4
2022-08-05T10:13:47.631Z,90.3
2022-08-05T10:15:46.928Z,90.3
2022-08-05T10:20:04.163Z,90.8
2022-08-05T10:21:53.185Z,90.8
2022-08-05T10:24:00.345Z,90.6
2022-08-05T10:26:00.492Z,89.3
2022-08-05T10:28:13.895Z,88.9
2022-08-05T10:30:42.042Z,86.9
2022-08-05T10:32:52.974Z,82.2
2022-08-05T10:34:08.874Z,81.9
2022-08-05T10:38:13.023Z,81.6
2022-08-05T10:42:22.926Z,77
2022-08-05T10:44:22.438Z,76.3
2022-08-05T10:46:24.504Z,75.9
2022-08-05T10:48:30.341Z,75.7
2022-08-05T10:50:35.420Z,74.1
2022-08-05T10:52:30.750Z,74.2
2022-08-05T10:56:38.113Z,72.9
2022-08-05T10:58:48.602Z,72.6
2022-08-05T11:00:04.430Z,72.6
2022-08-05T11:01:54.675Z,72
2022-08-05T11:08:01.445Z,64.6
2022-08-05T11:10:03.982Z,64.5
2022-08-05T11:11:58.643Z,64.2
2022-08-05T11:14:00.756Z,64.2
2022-08-05T11:16:02.809Z,64.4
2022-08-05T11:18:04.875Z,64.7
2022-08-05T11:20:11.535Z,65.8
2022-08-05T11:22:12.231Z,67.1
2022-08-05T11:24:30.695Z,67.5
2022-08-05T11:26:16.397Z,68.1
2022-08-05T11:28:18.482Z,68
2022-08-05T11:32:22.644Z,67.6
2022-08-05T11:34:26.277Z,67.4
2022-08-05T11:38:45.438Z,67.2
2022-08-05T11:40:34.199Z,67.3
2022-08-05T11:42:40.387Z,67.5
2022-08-05T11:44:40.330Z,67.3
2022-08-05T11:47:10.195Z,67.3
2022-08-05T11:48:42.528Z,67
2022-08-05T11:50:47.786Z,66.3
2022-08-05T11:55:54.604Z,65.1
2022-08-05T11:58:09.240Z,64.7
2022-08-05T11:59:58.738Z,64.9
2022-08-05T12:10:12.791Z,66.1
2022-08-05T12:12:14.414Z,66.5
2022-08-05T12:14:16.968Z,68.2
2022-08-05T12:16:18.631Z,68.3
2022-08-05T12:18:24.360Z,69.4
2022-08-05T12:20:33.588Z,69.6
2022-08-05T12:22:28.006Z,70.1
2022-08-05T12:24:30.219Z,69.9
2022-08-05T12:26:32.152Z,67.3
2022-08-05T12:28:34.262Z,66.9
2022-08-05T12:30:36.349Z,66.8
2022-08-05T12:32:41.593Z,66.3
2022-08-05T12:34:43.658Z,66.8
2022-08-05T12:36:45.858Z,67.3
2022-08-05T12:38:47.837Z,68.2
2022-08-05T12:40:49.900Z,68.5
2022-08-05T12:44:54.111Z,68.9
2022-08-05T12:47:00.867Z,69.8
2022-08-05T12:49:05.763Z,70.2
2022-08-05T12:51:05.050Z,70.6
2022-08-05T12:52:13.117Z,71
2022-08-05T12:58:49.212Z,71.6
2022-08-05T13:02:21.335Z,72
2022-08-05T13:04:23.315Z,72.7
2022-08-05T13:06:25.411Z,72.7
2022-08-05T13:10:29.601Z,72.8
2022-08-05T13:14:36.944Z,69.8
2022-08-05T13:16:38.992Z,69.6
2022-08-05T13:18:41.065Z,69.5
2022-08-05T13:20:43.168Z,69.6
2022-08-05T13:22:45.244Z,70.2
2022-08-05T13:24:57.588Z,71.5
2022-08-05T13:26:50.744Z,71
2022-08-05T13:28:54.640Z,64
2022-08-05T13:30:57.092Z,63.9
2022-08-05T13:33:01.438Z,63.7
2022-08-05T13:35:00.887Z,63.8
2022-08-05T13:37:02.986Z,63.9
2022-08-05T13:39:24.084Z,64.3
2022-08-05T13:41:07.123Z,64.1
2022-08-05T13:43:12.460Z,63.3
2022-08-05T13:45:14.426Z,63.1
2022-08-05T13:47:36.030Z,63.1
2022-08-05T13:49:45.238Z,64
2022-08-05T13:51:47.280Z,64
2022-08-05T13:53:49.186Z,64
2022-08-05T13:55:58.865Z,64.5
2022-08-05T14:04:02.700Z,69.7
2022-08-05T14:06:26.102Z,70.1
2022-08-05T14:08:11.304Z,64.9
2022-08-05T14:10:12.265Z,68.4
2022-08-05T14:12:17.420Z,69.6
2022-08-05T14:14:16.213Z,70.7
2022-08-05T14:16:19.201Z,71.9
2022-08-05T14:20:27.308Z,73.7
2022-08-05T14:22:30.191Z,74.7
2022-08-05T14:24:29.776Z,75.4
2022-08-05T14:26:38.778Z,76.9
2022-08-05T14:28:33.953Z,77.2
2022-08-05T14:30:36.068Z,78.8
2022-08-05T14:32:38.174Z,78.8
2022-08-05T14:34:40.208Z,79
2022-08-05T14:36:42.325Z,78.7
2022-08-05T14:38:47.550Z,75.6
2022-08-05T14:40:49.652Z,74.3
2022-08-05T14:42:51.859Z,74.3
2022-08-05T14:45:56.439Z,75
2022-08-05T14:48:05.836Z,75.7
2022-08-05T14:56:10.048Z,75
2022-08-05T14:58:13.993Z,74.5
2022-08-05T15:00:14.324Z,74.2
2022-08-05T15:02:16.340Z,73.9
2022-08-05T15:04:20.564Z,72.8
2022-08-05T15:06:28.034Z,72.9
2022-08-05T15:08:57.583Z,72.7
2022-08-05T15:10:28.860Z,71.5
2022-08-05T15:12:45.686Z,71.4
2022-08-05T15:14:34.804Z,71.3
2022-08-05T15:16:33.887Z,71.3
2022-08-05T15:18:35.940Z,71.6
2022-08-05T15:20:41.168Z,72.7
2022-08-05T15:22:44.729Z,73.1
2022-08-05T15:24:45.292Z,73.1
2022-08-05T15:26:47.376Z,72.8
2022-08-05T15:28:52.002Z,72.5
2022-08-05T15:30:53.035Z,72
2022-08-05T15:32:53.558Z,71.7
2022-08-05T15:34:58.796Z,71.8
2022-08-05T15:37:06.497Z,72.1
2022-08-05T15:41:03.838Z,72.6
2022-08-05T15:46:11.690Z,85.2
2022-08-05T15:52:51.691Z,89.5
2022-08-05T15:54:34.692Z,90.4
2022-08-05T15:56:25.199Z,90.9
2022-08-05T15:58:27.244Z,91.8
2022-08-05T16:02:34.754Z,93.1
2022-08-05T16:04:36.633Z,93.5
2022-08-05T16:06:38.741Z,94
2022-08-05T16:08:40.799Z,94.1
2022-08-05T16:10:42.894Z,93.9
2022-08-05T16:12:44.938Z,93.5
2022-08-05T16:14:47.023Z,92.4
2022-08-05T16:16:52.267Z,91.9
2022-08-05T16:18:54.330Z,91.6
2022-08-05T16:20:56.393Z,91.4
2022-08-05T16:22:58.457Z,91
2022-08-05T16:35:14.004Z,83.6
2022-08-05T16:36:20.526Z,83.7
2022-08-05T16:42:28.261Z,85.2
2022-08-05T16:48:35.126Z,85.4
2022-08-05T16:50:34.321Z,85.4
2022-08-05T17:06:54.224Z,86.9
2022-08-05T17:08:56.327Z,86.8
2022-08-05T17:10:58.448Z,86.6
2022-08-05T17:13:03.862Z,86
2022-08-05T17:15:05.814Z,85.7
2022-08-05T17:17:14.484Z,85.4
2022-08-05T17:21:12.107Z,85.4
2022-08-05T17:24:03.166Z,85.9
2022-08-05T17:25:33.461Z,86.2
2022-08-05T17:27:21.572Z,87.1
2022-08-05T17:29:33.958Z,87.3
2022-08-05T17:33:54.471Z,88
2022-08-05T17:36:07.662Z,88
2022-08-05T17:40:04.041Z,87.4
2022-08-05T17:42:20.104Z,86.9
2022-08-05T17:44:08.182Z,86.6
2022-08-05T17:48:12.441Z,86.4
2022-08-05T17:50:14.915Z,86.8
2022-08-05T17:52:16.712Z,88.1
2022-08-05T17:54:23.344Z,85.3
2022-08-05T17:56:28.455Z,85.7
2022-08-05T17:58:32.468Z,85.9
2022-08-05T18:00:28.586Z,86
2022-08-05T18:02:30.415Z,86.2
2022-08-05T18:04:32.581Z,86.4
2022-08-05T18:06:34.727Z,86.7
2022-08-05T18:08:40.676Z,86.9
2022-08-05T18:10:42.048Z,86.9
2022-08-05T18:12:44.165Z,86.5
2022-08-05T18:14:46.439Z,86.4
2022-08-05T18:16:52.000Z,86.3
2022-08-05T18:18:50.736Z,87.6
2022-08-05T18:20:52.655Z,89.1
2022-08-05T18:27:02.215Z,91.2
2022-08-05T18:28:05.298Z,91.5
2022-08-05T18:30:06.943Z,92.1
2022-08-05T18:32:12.751Z,92.4
2022-08-05T18:34:12.652Z,92.7
2022-08-05T18:36:19.096Z,93.3
2022-08-05T18:38:26.119Z,93.4
2022-08-05T18:41:50.581Z,93.5
2022-08-05T18:42:24.601Z,93.5
2022-08-05T18:44:34.798Z,93.5
2022-08-05T18:46:29.057Z,93.5
2022-08-05T18:48:33.167Z,93.4
2022-08-05T18:50:45.159Z,93.6
2022-08-05T18:52:38.168Z,93.5
2022-08-05T18:54:41.413Z,93.5
2022-08-05T18:56:50.973Z,93.6
2022-08-05T18:58:44.550Z,93.7
2022-08-05T19:00:48.132Z,93.8
2022-08-05T19:02:48.907Z,93.8
2022-08-05T19:05:01.460Z,94.1
2022-08-05T19:06:56.193Z,94.2
2022-08-05T19:08:58.393Z,94.3
2022-08-05T19:11:04.702Z,94.4
2022-08-05T19:13:02.654Z,94.7
2022-08-05T19:15:04.713Z,94.9
2022-08-05T19:17:07.790Z,95.1
2022-08-05T19:19:12.244Z,95.4
2022-08-05T19:21:14.247Z,95.5
2022-08-05T19:24:03.250Z,95.6
2022-08-05T19:24:19.004Z,95.8
2022-08-05T19:26:21.139Z,96
2022-08-05T19:28:23.258Z,96.3
2022-08-05T19:30:25.470Z,96.5
2022-08-05T19:32:30.664Z,97.1
2022-08-05T19:34:32.817Z,97.4
2022-08-05T19:36:34.905Z,97.7
2022-08-05T19:38:37.047Z,97.9
2022-08-05T19:40:39.200Z,98.2
2022-08-05T19:42:41.441Z,98.5
2022-08-05T19:44:44.875Z,98.7
2022-08-05T19:46:50.332Z,99.2
2022-08-05T19:48:50.836Z,99.4
2022-08-05T19:50:52.951Z,99.6
2022-08-05T19:52:55.091Z,99.7
2022-08-05T19:54:57.206Z,99.8
2022-08-05T19:56:59.357Z,99.8
2022-08-05T19:59:51.163Z,99.9
2022-08-05T20:01:06.803Z,99.9
2022-08-05T20:03:09.493Z,99.9
2022-08-05T20:05:24.026Z,99.9
2022-08-05T20:07:13.631Z,99.9
2022-08-05T20:09:15.326Z,99.9
2022-08-05T20:13:30.199Z,99.9
2022-08-05T20:15:52.536Z,99.9
2022-08-05T20:17:26.974Z,99.9
2022-08-05T20:19:36.297Z,99.9
2022-08-05T20:20:31.754Z,99.9
2022-08-05T20:22:33.899Z,99.9
2022-08-05T20:24:36.014Z,99.9
2022-08-05T20:26:38.145Z,99.9
2022-08-05T20:28:43.411Z,99.9
2022-08-05T20:32:47.678Z,99.9
2022-08-05T20:34:49.816Z,99.9
2022-08-05T20:36:51.959Z,99.9
2022-08-05T20:38:58.106Z,99.9
2022-08-05T20:40:56.381Z,99.9
2022-08-05T20:43:01.469Z,99.9
2022-08-05T20:45:03.602Z,99.9
2022-08-05T20:51:10.042Z,99.9
2022-08-05T20:53:16.269Z,99.9
2022-08-05T20:56:07.758Z,99.9
2022-08-05T20:57:42.593Z,99.9
2022-08-05T20:59:27.108Z,99.9
2022-08-05T21:01:37.238Z,99.9
2022-08-05T21:03:25.921Z,99.9
2022-08-05T21:05:38.060Z,99.9
2022-08-05T21:07:51.014Z,99.9
2022-08-05T21:09:33.720Z,99.9
2022-08-05T21:12:06.577Z,99.9
2022-08-05T21:15:44.346Z,99.9
2022-08-05T21:18:10.570Z,99.9
2022-08-05T21:20:12.712Z,99.9
2022-08-05T21:22:14.820Z,99.9
2022-08-05T21:26:22.238Z,99.9
2022-08-05T21:28:30.624Z,99.9
2022-08-05T21:50:54.127Z,99.9
2022-08-05T21:55:06.799Z,99.9
2022-08-05T21:57:30.821Z,99.9
2022-08-05T21:59:08.023Z,99.9
2022-08-05T22:01:04.930Z,99.9
2022-08-05T22:03:06.893Z,99.9
2022-08-05T22:05:09.191Z,99.9
2022-08-05T22:07:14.312Z,99.9
2022-08-05T22:09:21.571Z,99.9
2022-08-05T22:11:18.521Z,99.9
2022-08-05T22:12:26.410Z,99.9
2022-08-05T22:14:34.967Z,99.9
2022-08-05T22:20:32.987Z,99.9
2022-08-05T22:24:40.076Z,99.9
2022-08-05T22:26:39.658Z,99.9
2022-08-05T22:28:41.823Z,99.9
2022-08-05T22:30:56.044Z,99.9
2022-08-05T22:32:46.225Z,99.9
2022-08-05T22:34:51.503Z,99.9
2022-08-05T22:36:53.761Z,99.9
2022-08-05T22:38:56.055Z,99.9
2022-08-05T22:40:58.185Z,99.9
2022-08-05T22:45:02.525Z,99.9
2022-08-05T22:47:05.745Z,99.9
2022-08-05T22:49:12.103Z,99.9
2022-08-05T22:51:22.357Z,99.9
2022-08-05T22:53:16.707Z,99.9
2022-08-05T22:55:19.607Z,99.9
2022-08-05T22:57:18.501Z,99.9
2022-08-05T22:59:45.542Z,99.9
2022-08-05T23:01:23.034Z,99.9
2022-08-05T23:07:32.435Z,99.9
2022-08-05T23:12:39.525Z,99.9
2022-08-05T23:14:43.786Z,99.9
2022-08-05T23:20:51.530Z,99.9
2022-08-05T23:22:56.020Z,99.9
2022-08-05T23:24:56.001Z,99.9
2022-08-05T23:26:58.149Z,99.9
2022-08-05T23:29:00.350Z,99.9
2022-08-05T23:31:17.021Z,99.9
2022-08-05T23:35:09.848Z,99.9
2022-08-05T23:37:11.935Z,99.9
2022-08-05T23:39:17.325Z,99.9
2022-08-05T23:41:16.271Z,99.9
2022-08-05T23:43:25.047Z,99.9
2022-08-05T23:45:23.950Z,99.9
2022-08-05T23:47:25.982Z,99.9
2022-08-05T23:53:46.639Z,99.9
2022-08-05T23:57:36.805Z,99.9
